Thursday, September 20, 2018, 10:19 PM EDT
Back to Local

KHPN, White Plains Westchester

Location: Greenwich, NY, United States Lat: 41.067
Local Time: 10:19 PM EDT ( 2:19 GMT) Lon: -73.7
Time Zone: US/Eastern Elev: 439 ft

Show me the last for .
Show Decoded

2018-09-20 21:56 METAR KHPN 210156Z 15006KT 10SM FEW010 BKN050 18/15 A3025 RMK AO2 SLP242
                 T01780150 =
2018-09-20 20:56 METAR KHPN 210056Z 15004KT 10SM FEW010 BKN045 18/16 A3025 RMK AO2 SLP243
                 T01830156 =
2018-09-20 19:56 METAR KHPN 202356Z 17004KT 10SM FEW010 BKN038 19/16 A3024 RMK AO2 SLP236
                 T01890156 10217 20183 50006 =
2018-09-20 18:56 METAR KHPN 202256Z 16005KT 10SM FEW015 BKN040 19/16 A3024 RMK AO2 SLP237
                 T01940156 =
2018-09-20 17:56 METAR KHPN 202156Z 13005KT 10SM BKN040 21/12 A3023 RMK AO2 SLP233 T02060122 =
2018-09-20 16:56 METAR KHPN 202056Z 11006KT 10SM SCT050 21/12 A3022 RMK AO2 SLP229 T02110122
                 56009 =
2018-09-20 15:56 METAR KHPN 201956Z 19007KT 10SM FEW026 SCT050 21/12 A3022 RMK AO2 SLP230
                 T02110122 =
2018-09-20 14:56 METAR KHPN 201856Z 00000KT 10SM FEW026 BKN050 21/13 A3022 RMK AO2 SLP230
                 T02110128 =
2018-09-20 13:56 METAR KHPN 201756Z 00000KT 10SM SCT038 BKN050 20/13 A3024 RMK AO2 SLP238
                 T02000128 10200 20161 58001 =
2018-09-20 12:56 METAR KHPN 201656Z 13003KT 10SM FEW025 BKN037 19/13 A3024 RMK AO2 SLP238
                 T01940128 =
2018-09-20 11:56 METAR KHPN 201556Z 00000KT 10SM FEW020 BKN035 19/12 A3025 RMK AO2 SLP241
                 T01890122 =
2018-09-20 10:56 METAR KHPN 201456Z 08003KT 10SM FEW020 BKN033 18/13 A3025 RMK AO2 SLP239
                 T01780128 51016 =
2018-09-20 09:56 METAR KHPN 201356Z 07005KT 10SM FEW020 BKN031 17/13 A3024 RMK AO2 SLP235
                 T01720128 =
2018-09-20 08:56 METAR KHPN 201256Z 07005KT 10SM BKN030 17/13 A3021 RMK AO2 SLP228 T01670128 =
2018-09-20 07:56 METAR KHPN 201156Z 05004KT 10SM BKN029 16/13 A3020 RMK AO2 SLP223 60000
                 T01610128 10178 20161 53025 =
2018-09-20 06:56 METAR KHPN 201056Z 08005KT 10SM FEW015 BKN026 OVC042 16/12 A3016 RMK AO2 DZE26
                 SLP211 P0000 T01610122 =
2018-09-20 05:56 METAR KHPN 200956Z 08007KT 10SM -DZ FEW008 BKN020 16/13 A3014 RMK AO2 DZB38
                 SLP203 P0000 T01610128 =
2018-09-20 04:56 METAR KHPN 200856Z 10004KT 10SM FEW015 BKN020 17/13 A3012 RMK AO2 SLP196
                 T01670133 53007 =
2018-09-20 03:56 METAR KHPN 200756Z 10006KT 10SM BKN015 OVC023 17/14 A3011 RMK AO2 SLP190
                 T01720139 =
2018-09-20 02:56 METAR KHPN 200656Z 10005KT 10SM OVC015 17/15 A3010 RMK AO2 SLP188 T01720150 =
2018-09-20 01:56 METAR KHPN 200556Z 10006KT 10SM BKN013 18/14 A3010 RMK AO2 SLP189 T01780144
                 10206 20178 53011 =
2018-09-20 00:56 METAR KHPN 200456Z 10006KT 10SM BKN013 18/16 A3008 RMK AO2 SLP182 T01830156
                 402670183 =
2018-09-19 23:56 METAR KHPN 200356Z VRB06KT 10SM BKN013 19/17 A3008 RMK AO2 SLP181 T01890167 =
2018-09-19 22:56 METAR KHPN 200256Z 09005KT 10SM CLR 19/17 A3007 RMK AO2 SLP177 T01890167 51024 =
2018-09-19 22:23 METAR KHPN 200223Z 09005KT 10SM BKN013 BKN028 BKN047 19/17 A3006 RMK AO2
                 T01940172 =

Support USWX by starting your Amazon purchase here.